createdAt,value
2019-04-25T00:01:52.322Z,96342.52
2019-04-25T00:04:48.008Z,96344.25
2019-04-25T00:07:43.962Z,96345.16
2019-04-25T00:10:42.562Z,96351.55
2019-04-25T00:13:38.309Z,96341.80
2019-04-25T00:16:36.803Z,96341.80
2019-04-25T00:22:06.410Z,96343.51
2019-04-25T00:24:47.903Z,96348.69
2019-04-25T00:27:19.792Z,96347.89
2019-04-25T00:29:51.631Z,96349.61
2019-04-25T00:32:22.859Z,96341.17
2019-04-25T00:34:53.075Z,96344.59
2019-04-25T00:37:24.906Z,96351.05
2019-04-25T00:39:55.243Z,96349.52
2019-04-25T00:42:26.338Z,96350.05
2019-04-25T00:44:58.199Z,96352.66
2019-04-25T00:47:28.366Z,96359.56
2019-04-25T00:49:58.628Z,96354.97
2019-04-25T00:52:31.321Z,96349.48
2019-04-25T00:55:01.997Z,96353.77
2019-04-25T00:57:32.385Z,96360.97
2019-04-25T01:00:18.168Z,96367.35
2019-04-25T01:02:52.497Z,96354.25
2019-04-25T01:05:22.433Z,96366.98
2019-04-25T01:07:53.570Z,96369.11
2019-04-25T01:10:24.780Z,96368.30
2019-04-25T01:12:55.762Z,96374.66
2019-04-25T01:15:26.835Z,96375.95
2019-04-25T01:17:57.143Z,96367.47
2019-04-25T01:20:27.320Z,96370.42
2019-04-25T01:22:57.833Z,96369.19
2019-04-25T01:25:38.636Z,96373.44
2019-04-25T01:27:59.969Z,96375.14
2019-04-25T01:30:30.479Z,96384.03
2019-04-25T01:33:01.517Z,96376.03
2019-04-25T01:35:56.916Z,96376.03
2019-04-25T01:38:33.535Z,96383.22
2019-04-25T01:41:21.738Z,96389.59
2019-04-25T01:43:58.357Z,96383.66
2019-04-25T01:46:28.045Z,96388.74
2019-04-25T01:48:58.685Z,96389.16
2019-04-25T01:51:29.043Z,96387.91
2019-04-25T01:53:59.273Z,96390.42
2019-04-25T01:56:29.432Z,96389.58
2019-04-25T01:58:59.667Z,96378.61
2019-04-25T02:01:30.343Z,96361.27
2019-04-25T02:04:00.614Z,96369.30
2019-04-25T02:06:30.944Z,96375.21
2019-04-25T02:09:01.318Z,96369.70
2019-04-25T02:11:54.718Z,96370.57
2019-04-25T02:14:24.993Z,96378.59
2019-04-25T02:16:56.272Z,96382.81
2019-04-25T02:19:27.405Z,96369.28
2019-04-25T02:21:57.876Z,96372.65
2019-04-25T02:24:28.097Z,96379.86
2019-04-25T02:26:58.733Z,96375.61
2019-04-25T02:29:29.649Z,96380.25
2019-04-25T02:32:02.848Z,96380.67
2019-04-25T02:34:34.376Z,96376.84
2019-04-25T02:37:08.886Z,96377.27
2019-04-25T02:39:37.460Z,96370.91
2019-04-25T02:42:08.718Z,96377.66
2019-04-25T02:44:44.502Z,96381.81
2019-04-25T02:47:24.877Z,96375.03
2019-04-25T02:50:11.940Z,96369.97
2019-04-25T02:52:50.479Z,96372.47
2019-04-25T02:55:30.784Z,96378.39
2019-04-25T02:57:54.211Z,96369.08
2019-04-25T03:00:27.422Z,96367.81
2019-04-25T03:02:59.165Z,96374.14
2019-04-25T03:05:29.934Z,96365.24
2019-04-25T03:08:01.454Z,96369.04
2019-04-25T03:10:34.775Z,96372.39
2019-04-25T03:13:07.015Z,96368.14
2019-04-25T03:15:36.522Z,96377.81
2019-04-25T03:18:11.166Z,96379.88
2019-04-25T03:20:48.641Z,96381.52
2019-04-25T03:23:42.238Z,96376.84
2019-04-25T03:26:10.618Z,96371.33
2019-04-25T03:28:41.138Z,96370.06
2019-04-25T03:31:18.593Z,96378.06
2019-04-25T03:33:45.799Z,96378.92
2019-04-25T03:36:17.006Z,96377.24
2019-04-25T03:38:47.304Z,96379.77
2019-04-25T03:41:17.649Z,96382.31
2019-04-25T03:43:47.874Z,96391.58
2019-04-25T03:46:18.148Z,96390.71
2019-04-25T03:48:48.527Z,96392.38
2019-04-25T03:51:18.784Z,96395.72
2019-04-25T03:53:49.078Z,96402.44
2019-04-25T03:56:19.420Z,96412.53
2019-04-25T03:58:50.522Z,96409.47
2019-04-25T04:01:20.853Z,96417.86
2019-04-25T04:03:53.696Z,96416.19
2019-04-25T04:06:24.560Z,96409.00
2019-04-25T04:08:54.892Z,96413.66
2019-04-25T04:11:25.146Z,96420.84
2019-04-25T04:13:55.623Z,96420.00
2019-04-25T04:16:29.719Z,96422.97
2019-04-25T04:19:00.021Z,96417.45
